EGSH

Norwich International Airport

Norwich, United Kingdom
METAR EGSH 181520Z VRB02KT 9999 FEW030 13/07 Q1027
Observed Flight Rules
Oct-18 @ 15:20 UTC (36 minutes ago) Visual Flight Rules
Wind Visibility Clouds
Variable at 2 knots 10,000+ meters
  • Few at 3,000' AGL
Temperatures Readings
Current 13°C / 55°F
Dewpoint 7°C / 45°F
Humidity 67%
Altimeter 30.32" Hg
Pressure 1027 hPa
Elevation 36
METAR EGSH 181520Z VRB02KT 9999 FEW030 13/07 Q1027
Observed Flight Rules
Oct-18 @ 15:20 UTC
(36 minutes ago)
VFR
Wind Visibility
Variable at 2 knots 10,000+ meters
Clouds
  • Few at 3,000' AGL
Temperature Dewpoint
13°C / 55°F 7°C / 45°F
Humidity Altimeter Pressure
67% 30.32" Hg 1027 hPa